Latest Weather Observations for Naracoorte

IDS60801

Issued at 10:32 am CDT Sunday 21 December 2014 (issued every 30 minutes, with the page automatically refreshed every 10 minutes)

About weather observations | Map of weather stations | Latest weather observations for SA | Other Formats
Station Details ID: 026099 Name: NARACOORTE AERODROME Lat: -36.98 Lon: 140.73 Height: 49.72 m
Data from the previous 72 hours. | See also: Recent months at Naracoorte
Date/Time
CDT
Temp
°C
App
Temp
°C
Dew
Point
Rel
Hum
%
Delta-T
°C
Wind Press
QNH
hPa
Press
MSL
hPa
Rain
since 9 am
mm
Dir
 
Spd
km/h
Gust
km/h
Spd
kts
Gust
kts
21/10:30am 31.0 25.2 6.1 21 13.3 NW 26 37 14 20 1012.6 1012.5 0.0
21/10:00am 29.7 24.8 7.0 24 12.2 NNW 22 30 12 16 1012.5 1012.4 0.0
21/09:30am 28.2 23.4 7.4 27 11.2 N 22 33 12 18 1012.6 1012.5 0.0
21/09:00am 26.6 22.6 8.1 31 10.0 N 19 33 10 18 1012.7 1012.6 0.0
21/08:30am 24.5 21.0 8.9 37 8.4 NNE 17 26 9 14 1012.8 1012.7 0.0
21/08:00am 22.1 18.3 8.9 43 7.0 NNE 19 28 10 15 1012.5 1012.4 0.0
21/07:30am 20.4 15.3 9.3 49 5.9 NE 26 33 14 18 1012.4 1012.3 0.0
21/07:00am 18.7 13.3 9.5 55 4.9 NE 28 35 15 19 1012.1 1012.0 0.0
21/06:30am 16.5 11.5 9.7 64 3.6 NE 26 33 14 18 1011.9 1011.8 0.0
21/06:00am 14.9 10.7 9.7 71 2.7 NE 22 30 12 16 1011.8 1011.7 0.0
21/05:30am 14.6 10.9 10.0 74 2.4 NE 20 28 11 15 1011.9 1011.8 0.0
21/05:00am 14.3 11.2 10.3 77 2.1 NE 17 22 9 12 1011.9 1011.8 0.0
21/04:30am 13.1 11.6 10.6 85 1.3 ENE 9 15 5 8 1011.9 1011.8 0.0
21/04:00am 9.8 7.5 7.6 86 1.1 ESE 9 9 5 5 1012.4 1012.3 0.0
21/03:30am 11.4 9.9 8.3 81 1.5 S 6 7 3 4 1012.9 1012.8 0.0
21/03:00am 13.7 12.6 9.9 78 2.0 ESE 6 9 3 5 1012.9 1012.8 0.0
21/02:30am 13.4 12.1 9.8 79 1.9 ESE 7 9 4 5 1012.9 1012.8 0.0
21/02:00am 13.2 11.5 9.8 80 1.7 SE 9 11 5 6 1012.9 1012.8 0.0
21/01:30am 11.8 9.2 9.5 86 1.2 SE 13 15 7 8 1013.4 1013.3 0.0
21/01:00am 12.1 9.5 9.3 83 1.4 SSE 13 13 7 7 1013.9 1013.8 0.0
21/12:30am 12.7 9.8 9.7 82 1.5 S 15 17 8 9 1014.3 1014.2 0.0
21/12:00am 13.4 11.3 9.6 78 1.9 SSE 11 13 6 7 1014.5 1014.4 0.0
 
Date/Time
CDT
Temp
°C
App
Temp
°C
Dew
Point
Rel
Hum
%
Delta-T
°C
Wind Press
QNH
hPa
Press
MSL
hPa
Rain
since 9 am
mm
Dir
 
Spd
km/h
Gust
km/h
Spd
kts
Gust
kts
20/11:30pm 14.1 11.2 9.7 75 2.3 SSE 15 17 8 9 1014.9 1014.8 0.0
20/11:00pm 15.1 11.9 9.9 71 2.7 SSE 17 20 9 11 1015.3 1015.2 0.0
20/10:30pm 15.9 12.4 10.2 69 3.0 SSE 19 22 10 12 1015.3 1015.2 0.0
20/10:00pm 17.2 13.5 10.3 64 3.7 SSE 20 26 11 14 1015.5 1015.4 0.0
20/09:30pm 17.5 14.3 10.1 62 3.9 S 17 20 9 11 1015.4 1015.3 0.0
20/09:00pm 19.0 15.4 10.0 56 4.8 S 19 24 10 13 1015.4 1015.3 0.0
20/08:30pm 20.8 16.5 9.4 48 6.1 SSW 22 30 12 16 1015.2 1015.1 0.0
20/08:00pm 23.4 19.1 7.9 37 8.2 SSW 20 24 11 13 1015.1 1015.0 0.0
20/07:30pm 25.3 20.9 6.5 30 9.8 S 19 22 10 12 1014.8 1014.7 0.0
20/07:00pm 26.1 21.6 6.2 28 10.3 S 19 24 10 13 1014.6 1014.5 0.0
20/06:30pm 26.3 21.7 6.3 28 10.4 S 20 28 11 15 1014.5 1014.4 0.0
20/06:00pm 27.4 23.0 7.3 28 10.7 SSW 20 30 11 16 1014.5 1014.4 0.0
20/05:30pm 26.9 23.7 6.9 28 10.6 S 13 26 7 14 1014.4 1014.3 0.0
20/05:00pm 26.7 23.8 6.7 28 10.5 SSE 11 17 6 9 1014.7 1014.6 0.0
20/04:30pm 27.3 24.2 7.2 28 10.7 S 13 22 7 12 1014.9 1014.8 0.0
20/04:00pm 27.4 24.2 6.8 27 10.9 SSE 13 24 7 13 1015.2 1015.1 0.0
20/03:30pm 27.6 25.3 7.5 28 10.8 WSW 9 15 5 8 1015.5 1015.4 0.0
20/03:00pm 26.4 23.6 6.9 29 10.3 SE 11 19 6 10 1016.2 1016.1 0.0
20/02:30pm 26.0 22.0 6.6 29 10.1 WSW 17 24 9 13 1016.7 1016.6 0.0
20/02:00pm 26.3 23.2 7.4 30 10.0 W 13 24 7 13 1017.5 1017.3 0.0
20/01:30pm 25.1 21.8 6.3 30 9.7 WSW 13 22 7 12 1017.8 1017.6 0.0
20/01:00pm 24.5 22.1 7.2 33 9.1 ESE 9 13 5 7 1018.1 1017.9 0.0
20/12:30pm 23.0 19.9 7.1 36 8.2 WSW 13 20 7 11 1018.7 1018.5 0.0
20/12:00pm 22.1 19.1 7.9 40 7.4 SSW 13 22 7 12 1019.0 1018.9 0.0
20/11:30am 21.4 18.6 8.7 44 6.7 SW 13 32 7 17 1019.3 1019.2 0.0
20/11:00am 20.8 18.1 8.8 46 6.3 WSW 13 19 7 10 1019.6 1019.5 0.0
20/10:30am 19.6 17.0 9.2 51 5.5 W 13 20 7 11 1019.8 1019.7 0.0
20/10:00am 19.2 18.0 9.7 54 5.1 SSW 6 11 3 6 1020.2 1020.1 0.0
20/09:30am 17.5 16.0 9.2 58 4.3 WNW 7 13 4 7 1020.4 1020.3 0.0
20/09:00am 17.1 15.7 9.5 61 4.0 SW 7 13 4 7 1020.5 1020.4 0.0
20/08:30am 16.4 14.9 9.3 63 3.7 WNW 7 11 4 6 1020.4 1020.3 0.0
20/08:00am 15.2 14.1 9.8 70 2.8 N 6 7 3 4 1020.1 1020.0 0.0
20/07:30am 13.5 12.3 9.6 77 2.0 N 6 9 3 5 1019.8 1019.7 0.0
20/07:00am 11.6 10.1 9.0 84 1.3 NNE 7 9 4 5 1019.4 1019.3 0.0
20/06:30am 9.6 9.1 7.9 89 0.8 CALM 0 0 0 0 1019.0 1018.9 0.0
20/06:00am 8.0 7.3 6.9 93 0.5 CALM 0 0 0 0 1018.8 1018.7 0.0
20/05:30am 8.3 7.6 7.1 92 0.6 CALM 0 0 0 0 1018.6 1018.4 0.0
20/05:00am 7.8 6.9 6.1 89 0.8 CALM 0 0 0 0 1018.4 1018.2 0.0
20/04:30am 9.0 8.5 7.8 92 0.6 CALM 0 0 0 0 1018.6 1018.4 0.0
20/04:00am 8.6 7.9 7.1 90 0.7 CALM 0 0 0 0 1018.5 1018.3 0.0
20/03:30am 7.5 6.4 5.1 85 1.1 CALM 0 0 0 0 1018.7 1018.5 0.0
20/03:00am 8.9 8.2 7.0 88 0.9 CALM 0 0 0 0 1018.8 1018.7 0.0
20/02:30am 9.2 8.6 7.2 87 0.9 CALM 0 0 0 0 1018.9 1018.8 0.0
20/02:00am 9.9 9.3 7.3 84 1.2 CALM 0 0 0 0 1019.2 1019.1 0.0
20/01:30am 10.2 9.6 7.4 83 1.3 CALM 0 0 0 0 1019.6 1019.5 0.0
20/01:00am 9.8 7.9 6.9 82 1.4 SE 6 7 3 4 1019.8 1019.7 0.0
20/12:30am 9.8 7.8 6.3 79 1.6 SSE 6 7 3 4 1020.1 1020.0 0.0
20/12:00am 10.4 8.5 6.9 79 1.7 S 6 6 3 3 1020.5 1020.4 0.0
 
Date/Time
CDT
Temp
°C
App
Temp
°C
Dew
Point
Rel
Hum
%
Delta-T
°C
Wind Press
QNH
hPa
Press
MSL
hPa
Rain
since 9 am
mm
Dir
 
Spd
km/h
Gust
km/h
Spd
kts
Gust
kts
19/11:30pm 10.5 8.0 6.6 77 1.8 S 9 11 5 6 1020.6 1020.5 0.0
19/11:00pm 10.6 8.1 6.4 75 2.0 SSE 9 9 5 5 1020.8 1020.7 0.0
19/10:30pm 10.9 8.0 6.5 74 2.1 SSW 11 11 6 6 1020.8 1020.7 0.0
19/10:00pm 11.9 9.1 6.8 71 2.4 SSW 11 13 6 7 1020.7 1020.6 0.0
19/09:30pm 13.1 10.0 7.1 67 2.9 SSW 13 17 7 9 1020.7 1020.6 0.0
19/09:00pm 14.3 10.4 7.1 62 3.5 SSW 17 19 9 10 1020.4 1020.3 0.0
19/08:30pm 15.5 11.0 6.8 56 4.3 SSW 20 26 11 14 1020.2 1020.1 0.0
19/08:00pm 17.0 12.0 6.5 50 5.2 SSW 22 30 12 16 1020.2 1020.1 0.0
19/07:30pm 18.2 12.6 5.4 43 6.2 SSW 24 32 13 17 1019.9 1019.8 0.0
19/07:00pm 19.0 12.7 5.8 42 6.5 SW 28 35 15 19 1019.5 1019.4 0.0
19/06:30pm 19.9 13.6 5.9 40 6.9 SW 28 39 15 21 1019.2 1019.1 0.0
19/06:00pm 20.6 14.3 5.8 38 7.4 SW 28 41 15 22 1018.9 1018.8 0.0
19/05:30pm 21.9 16.7 5.3 34 8.2 SW 22 32 12 17 1018.6 1018.4 0.0
19/05:00pm 22.3 16.5 4.4 31 8.8 SW 24 33 13 18 1018.7 1018.5 0.0
19/04:30pm 22.2 16.3 3.8 30 8.9 SSW 24 35 13 19 1018.6 1018.4 0.0
19/04:00pm 22.4 16.4 3.5 29 9.1 SW 24 32 13 17 1018.7 1018.5 0.0
19/03:30pm 22.4 17.3 4.0 30 8.9 SW 20 30 11 16 1018.6 1018.4 0.0
19/03:00pm 23.1 18.2 5.1 31 9.0 SW 20 37 11 20 1018.6 1018.4 0.0
19/02:30pm 22.5 16.3 4.1 30 9.0 SW 26 41 14 22 1018.7 1018.5 0.0
19/02:00pm 21.8 16.9 3.9 31 8.7 WSW 19 28 10 15 1018.7 1018.5 0.0
19/01:30pm 21.2 15.7 3.9 32 8.3 WSW 22 39 12 21 1018.9 1018.8 0.0
19/01:00pm 21.3 16.7 5.6 36 7.8 SW 19 35 10 19 1019.0 1018.9 0.0
19/12:30pm 20.0 15.7 5.3 38 7.2 S 17 28 9 15 1019.2 1019.1 0.0
19/12:00pm 20.1 15.0 4.2 35 7.6 SW 20 28 11 15 1019.3 1019.2 0.0
19/11:30am 19.4 14.2 5.5 40 6.8 WSW 22 32 12 17 1019.4 1019.3 0.0
19/11:00am 19.2 14.3 5.3 40 6.8 SSW 20 28 11 15 1019.4 1019.3 0.0
19/10:30am 18.1 13.4 6.0 45 5.9 SW 20 30 11 16 1019.5 1019.4 0.0
19/10:00am 18.5 13.7 5.7 43 6.3 SSW 20 28 11 15 1019.5 1019.4 0.0
19/09:30am 17.3 12.8 6.2 48 5.4 SW 19 26 10 14 1019.5 1019.4 0.0
19/09:00am 17.0 12.8 7.6 54 4.7 SW 19 28 10 15 1019.5 1019.4 2.0
19/08:30am 15.5 12.1 7.5 59 4.0 SW 15 24 8 13 1019.2 1019.1 2.0
19/08:00am 15.3 12.5 8.5 64 3.5 WSW 13 17 7 9 1018.9 1018.8 2.0
19/07:30am 13.0 11.5 9.3 78 1.9 WSW 7 9 4 5 1018.4 1018.2 2.0
19/07:00am 11.0 10.8 8.9 87 1.0 CALM 0 0 0 0 1018.1 1017.9 2.0
19/06:30am 9.6 9.1 7.7 88 0.9 CALM 0 0 0 0 1017.9 1017.7 2.0
19/06:00am 10.1 9.7 8.2 88 0.9 CALM 0 0 0 0 1017.5 1017.3 2.0
19/05:30am 9.9 9.5 8.2 89 0.8 CALM 0 0 0 0 1017.3 1017.1 2.0
19/05:00am 10.0 9.5 7.9 87 1.0 CALM 0 0 0 0 1017.1 1016.9 2.0
19/04:30am 10.0 9.4 7.4 84 1.2 CALM 0 0 0 0 1016.9 1016.7 2.0
19/04:00am 10.7 10.3 8.1 84 1.3 CALM 0 0 0 0 1016.6 1016.5 2.0
19/03:30am 10.8 10.3 8.0 83 1.4 CALM 0 0 0 0 1016.3 1016.2 2.0
19/03:00am 10.5 10.0 7.7 83 1.3 CALM 0 0 0 0 1016.4 1016.3 2.0
19/02:30am 9.9 9.3 7.5 85 1.1 CALM 0 0 0 0 1016.3 1016.2 2.0
19/02:00am 9.5 7.7 7.3 86 1.0 NNW 6 7 3 4 1016.4 1016.3 2.0
19/01:30am 8.7 6.7 7.2 90 0.7 N 7 9 4 5 1016.4 1016.3 2.0
19/01:00am 8.8 7.6 6.6 86 1.0 WNW 2 7 1 4 1016.5 1016.4 2.0
19/12:30am 8.5 7.6 6.0 84 1.1 CALM 0 7 0 4 1016.4 1016.3 2.0
19/12:00am 8.7 6.5 6.0 83 1.2 W 7 13 4 7 1016.4 1016.3 2.0
 
Date/Time
CDT
Temp
°C
App
Temp
°C
Dew
Point
Rel
Hum
%
Delta-T
°C
Wind Press
QNH
hPa
Press
MSL
hPa
Rain
since 9 am
mm
Dir
 
Spd
km/h
Gust
km/h
Spd
kts
Gust
kts
18/11:30pm 8.6 6.5 5.7 82 1.3 SW 6 7 3 4 1016.3 1016.2 2.0
18/11:00pm 8.9 7.6 6.0 82 1.3 SW 2 7 1 4 1015.8 1015.7 2.0
18/10:30pm 7.9 4.3 5.0 82 1.3 SW 13 17 7 9 1015.8 1015.7 2.0
18/10:00pm 8.5 4.2 5.4 81 1.4 WSW 17 17 9 9 1015.6 1015.5 2.0
18/09:30pm 10.1 5.9 5.7 74 2.0 SW 17 19 9 10 1015.2 1015.1 2.0
18/09:00pm 12.1 7.9 5.7 65 3.0 SW 17 20 9 11 1014.8 1014.7 2.0
18/08:30pm 13.5 8.8 5.9 60 3.6 SW 20 24 11 13 1014.6 1014.5 2.0
18/08:00pm 15.5 9.6 6.0 53 4.6 SW 26 35 14 19 1014.2 1014.1 2.0
18/07:30pm 16.5 9.5 5.8 49 5.2 SW 32 39 17 21 1013.7 1013.6 2.0
18/07:00pm 17.2 10.2 5.8 47 5.5 SSW 32 44 17 24 1012.9 1012.8 2.0
18/06:30pm 17.2 10.2 6.1 48 5.4 SW 32 43 17 23 1012.5 1012.4 2.0
18/06:00pm 19.2 11.3 6.3 43 6.4 SW 37 46 20 25 1011.9 1011.8 2.0
18/05:30pm 19.4 11.4 4.0 36 7.4 SW 35 50 19 27 1011.6 1011.5 2.0
18/05:00pm 19.8 11.2 2.6 32 8.0 SW 37 54 20 29 1011.2 1011.1 2.0
18/04:30pm 21.3 12.7 4.8 34 8.1 WSW 39 54 21 29 1011.0 1010.9 2.0
18/04:09pm 19.9 10.7 3.6 34 7.7 WSW 41 61 22 33 1010.8 1010.7 2.0
18/04:00pm 19.6 10.4 3.7 35 7.6 WSW 41 57 22 31 1010.9 1010.8 2.0
18/03:41pm 21.6 12.1 3.8 31 8.6 WSW 43 61 23 33 1010.7 1010.6 2.0
18/03:30pm 21.2 12.0 3.4 31 8.5 SW 41 56 22 30 1010.5 1010.4 2.0
18/03:25pm 19.9 11.3 4.8 37 7.3 SW 39 52 21 28 1010.5 1010.4 2.0
18/03:20pm 21.3 13.1 6.4 38 7.5 WSW 39 50 21 27 1010.5 1010.4 2.0
18/03:00pm 20.2 12.0 6.5 41 6.9 SW 39 54 21 29 1010.2 1010.1 2.0
18/02:30pm 19.9 11.5 5.5 39 7.1 WSW 39 57 21 31 1009.9 1009.8 2.0
18/02:00pm 19.3 10.9 8.9 51 5.5 WSW 43 61 23 33 1009.7 1009.6 2.0
18/01:56pm 20.1 12.7 9.7 51 5.6 WSW 39 59 21 32 1009.6 1009.5 2.0
18/01:30pm 18.4 12.6 11.5 64 3.8 SW 33 46 18 25 1009.7 1009.6 2.0
18/01:00pm 16.8 10.3 10.4 66 3.4 WSW 35 44 19 24 1009.5 1009.4 2.0
18/12:30pm 16.0 12.9 14.5 91 0.9 WSW 24 32 13 17 1009.4 1009.3 2.0
18/12:17pm 14.3 9.3 11.1 81 1.7 WSW 28 56 15 30 1009.3 1009.2 1.4
18/12:16pm 15.2 10.9 12.1 82 1.7 WSW 26 56 14 30 1009.3 1009.2 0.8
18/12:00pm 16.9 13.1 14.7 87 1.3 WSW 28 33 15 18 1009.1 1009.0 0.4
18/11:30am 14.6 7.4 13.1 91 0.8 WSW 43 56 23 30 1008.8 1008.7 0.4
18/11:24am 14.6 6.4 11.6 82 1.6 WSW 46 59 25 32 1008.8 1008.7 0.0
18/11:00am 19.5 12.5 13.7 69 3.3 W 43 63 23 34 1007.9 1007.8 0.0
18/10:43am 18.7 10.1 10.3 58 4.5 W 46 65 25 35 1007.8 1007.7 0.0

Other Formats:

Comma delimited format used in spreadsheet applications
http://www.bom.gov.au/fwo/IDS60801/IDS60801.94820.axf

JavaScript Object Notation format (JSON) in row-major order
http://www.bom.gov.au/fwo/IDS60801/IDS60801.94820.json